Time;durP1;ratioP1;P1;durP2;ratioP2;P2;SDS_P1;SDS_P2;PMS_P1;PMS_P2;Temp;Humidity;BMP_temperature;BMP_pressure;BME280_temperature;BME280_humidity;BME280_pressure;Samples;Min_cycle;Max_cycle;Signal;HPM_P1;HPM_P2
2021/08/21 00:02:17;;;;;;;4.07;3.70;;;20.20;99.90;;;;;;5033231;28;20726;-60
2021/08/21 00:04:42;;;;;;;4.80;4.40;;;20.30;99.90;;;;;;5033390;28;20206;-60
2021/08/21 00:07:08;;;;;;;5.03;4.43;;;20.20;99.90;;;;;;5032727;28;20568;-60
2021/08/21 00:09:37;;;;;;;4.60;4.20;;;20.20;99.90;;;;;;5033114;28;20186;-60
2021/08/21 00:12:04;;;;;;;5.30;4.20;;;20.30;99.90;;;;;;5033081;28;20179;-60
2021/08/21 00:14:30;;;;;;;4.70;4.20;;;20.20;99.90;;;;;;5034266;28;21011;-60
2021/08/21 00:16:55;;;;;;;6.47;4.70;;;20.20;99.90;;;;;;5037602;28;20429;-60
2021/08/21 00:19:21;;;;;;;4.90;4.43;;;20.20;99.90;;;;;;5035687;28;20636;-60
2021/08/21 00:21:48;;;;;;;4.60;4.20;;;20.20;99.90;;;;;;5037012;28;20658;-60
2021/08/21 00:24:14;;;;;;;5.10;4.70;;;20.20;99.90;;;;;;5036966;28;20635;-60
2021/08/21 00:26:40;;;;;;;4.60;4.20;;;20.20;99.90;;;;;;5036869;28;20472;-60
2021/08/21 00:29:05;;;;;;;4.33;4.03;;;20.20;99.90;;;;;;5036983;28;20397;-60
2021/08/21 00:31:31;;;;;;;5.20;4.77;;;20.20;99.90;;;;;;5035561;28;20180;-60
2021/08/21 00:33:57;;;;;;;5.57;4.77;;;20.20;99.90;;;;;;5018885;28;20195;-60
2021/08/21 00:36:22;;;;;;;5.33;4.80;;;20.10;99.90;;;;;;5018969;28;20198;-60
2021/08/21 00:38:48;;;;;;;6.40;5.50;;;20.10;99.90;;;;;;5035394;28;20201;-60
2021/08/21 00:41:14;;;;;;;7.10;5.70;;;20.10;99.90;;;;;;5036596;28;20628;-60
2021/08/21 00:43:40;;;;;;;5.43;4.93;;;20.10;99.90;;;;;;5036716;28;20477;-59
2021/08/21 00:46:06;;;;;;;5.70;4.60;;;20.10;99.90;;;;;;5028201;28;20237;-59
2021/08/21 00:48:31;;;;;;;4.73;4.33;;;20.00;99.90;;;;;;5016983;28;20491;-60
2021/08/21 00:51:01;;;;;;;5.73;5.33;;;20.00;99.90;;;;;;5016657;28;20171;-60
2021/08/21 00:53:29;;;;;;;5.80;4.97;;;20.00;99.90;;;;;;5016742;28;20196;-60
2021/08/21 00:55:55;;;;;;;4.80;4.40;;;19.90;99.90;;;;;;5016769;28;20406;-60
2021/08/21 00:58:22;;;;;;;5.10;4.63;;;19.80;99.90;;;;;;5016633;28;20395;-60
2021/08/21 01:00:49;;;;;;;5.13;4.63;;;19.70;99.90;;;;;;5016818;28;20398;-58
2021/08/21 01:03:14;;;;;;;5.77;4.70;;;19.70;99.90;;;;;;5016363;28;20409;-60
2021/08/21 01:05:40;;;;;;;5.30;4.80;;;19.70;99.90;;;;;;5016734;28;20407;-60
2021/08/21 01:08:06;;;;;;;4.67;4.27;;;19.70;99.90;;;;;;5029474;28;20179;-60
2021/08/21 01:10:32;;;;;;;5.40;5.00;;;19.70;99.90;;;;;;5036293;28;20225;-60
2021/08/21 01:12:57;;;;;;;7.63;5.10;;;19.80;99.90;;;;;;5036304;28;20266;-60
2021/08/21 01:15:25;;;;;;;6.33;5.33;;;19.80;99.90;;;;;;5018495;28;20671;-60
2021/08/21 01:17:55;;;;;;;5.10;4.60;;;19.80;99.90;;;;;;5035618;28;20237;-61
2021/08/21 01:20:25;;;;;;;5.00;4.53;;;19.70;99.90;;;;;;5036266;28;20406;-60
2021/08/21 01:22:50;;;;;;;5.37;4.93;;;19.70;99.90;;;;;;5035557;28;20398;-60
2021/08/21 01:25:23;;;;;;;5.90;5.10;;;19.70;99.90;;;;;;5035704;28;20848;-60
2021/08/21 01:27:49;;;;;;;5.03;4.63;;;19.80;99.90;;;;;;5033913;28;20878;-60
2021/08/21 01:30:15;;;;;;;5.70;5.20;;;19.70;99.90;;;;;;5035627;28;20467;-61
2021/08/21 01:32:40;;;;;;;5.70;5.20;;;19.60;99.90;;;;;;5035911;28;20187;-57
2021/08/21 01:35:07;;;;;;;5.33;4.83;;;19.70;99.90;;;;;;5035678;28;20245;-60
2021/08/21 01:37:33;;;;;;;5.80;5.30;;;19.70;99.90;;;;;;5035269;28;20422;-60
2021/08/21 01:39:59;;;;;;;5.77;5.20;;;19.70;99.90;;;;;;5036183;28;20912;-60
2021/08/21 01:42:25;;;;;;;5.87;5.37;;;19.60;99.90;;;;;;5035621;28;20540;-60
2021/08/21 01:44:52;;;;;;;5.37;4.97;;;19.50;99.90;;;;;;5020232;28;20264;-60
2021/08/21 01:47:19;;;;;;;5.80;5.17;;;19.50;99.90;;;;;;5015433;28;20454;-59
2021/08/21 01:50:02;;;;;;;5.40;5.00;;;19.50;99.90;;;;;;5031272;28;20934;-60
2021/08/21 01:52:27;;;;;;;7.00;5.57;;;19.50;99.90;;;;;;5035534;28;20397;-60
2021/08/21 01:54:53;;;;;;;5.70;4.90;;;19.40;99.90;;;;;;5035558;28;20759;-60
2021/08/21 01:57:19;;;;;;;5.23;4.73;;;19.40;99.90;;;;;;5035219;28;20699;-60
2021/08/21 01:59:47;;;;;;;5.97;5.37;;;19.30;99.90;;;;;;5034911;28;20203;-60
2021/08/21 02:02:15;;;;;;;5.33;4.83;;;19.30;99.90;;;;;;5035370;28;20456;-60
2021/08/21 02:04:41;;;;;;;5.23;4.73;;;19.20;99.90;;;;;;5034865;28;20409;-60
2021/08/21 02:07:07;;;;;;;6.50;5.27;;;19.10;99.90;;;;;;5035095;28;20484;-60
2021/08/21 02:09:34;;;;;;;6.80;5.27;;;19.00;99.90;;;;;;5033947;28;20445;-60
2021/08/21 02:12:01;;;;;;;6.17;5.43;;;18.90;99.90;;;;;;5035196;28;20410;-60
2021/08/21 02:14:27;;;;;;;6.33;5.70;;;18.90;99.90;;;;;;5035130;28;20850;-60
2021/08/21 02:16:58;;;;;;;5.90;5.33;;;18.90;99.90;;;;;;5034832;28;20476;-60
2021/08/21 02:19:24;;;;;;;7.07;5.80;;;18.90;99.90;;;;;;5034408;28;20386;-60
2021/08/21 02:21:52;;;;;;;5.53;4.90;;;18.80;99.90;;;;;;5034338;28;20489;-61
2021/08/21 02:24:23;;;;;;;5.80;5.30;;;18.80;99.90;;;;;;5033320;28;20938;-60
2021/08/21 02:26:49;;;;;;;5.80;5.30;;;18.70;99.90;;;;;;5034580;28;20671;-60
2021/08/21 02:29:15;;;;;;;5.67;5.17;;;18.80;99.90;;;;;;5034944;28;20438;-60
2021/08/21 02:31:41;;;;;;;5.30;4.90;;;18.70;99.90;;;;;;5034861;28;20258;-60
2021/08/21 02:34:06;;;;;;;5.30;4.80;;;18.70;99.90;;;;;;5034445;28;20187;-60
2021/08/21 02:36:33;;;;;;;5.70;5.20;;;18.60;99.90;;;;;;5034807;28;20421;-60
2021/08/21 02:38:58;;;;;;;5.83;5.33;;;18.60;99.90;;;;;;5033779;28;20178;-60
2021/08/21 02:41:24;;;;;;;5.60;5.07;;;18.50;99.90;;;;;;5034553;28;20406;-60
2021/08/21 02:43:50;;;;;;;5.50;5.03;;;18.40;99.90;;;;;;5034352;28;20539;-60
2021/08/21 02:46:16;;;;;;;6.13;5.63;;;18.40;99.90;;;;;;5034108;28;20199;-60
2021/08/21 02:48:42;;;;;;;6.77;5.80;;;18.40;99.90;;;;;;5034553;28;20203;-60
2021/08/21 02:51:08;;;;;;;7.00;5.80;;;18.30;99.90;;;;;;5034497;28;20443;-60
2021/08/21 02:53:33;;;;;;;5.47;5.03;;;18.20;99.90;;;;;;5032960;28;20199;-60
2021/08/21 02:56:00;;;;;;;6.60;6.00;;;18.20;99.90;;;;;;5034229;28;20187;-59
2021/08/21 02:58:26;;;;;;;5.80;5.30;;;18.00;99.90;;;;;;5034161;28;20167;-58
2021/08/21 03:00:52;;;;;;;6.00;5.50;;;18.00;99.90;;;;;;5034995;28;21033;-58
2021/08/21 03:03:17;;;;;;;6.33;5.73;;;17.90;99.90;;;;;;5034274;28;20501;-59
2021/08/21 03:05:43;;;;;;;7.20;5.50;;;17.80;99.90;;;;;;5033874;28;20172;-59
2021/08/21 03:08:09;;;;;;;5.70;5.20;;;17.80;99.90;;;;;;5034236;28;20179;-59
2021/08/21 03:10:34;;;;;;;7.30;6.40;;;17.80;99.90;;;;;;5033712;28;20660;-59
2021/08/21 03:13:02;;;;;;;9.97;6.03;;;17.80;99.90;;;;;;5032184;28;20198;-61
2021/08/21 03:15:28;;;;;;;6.20;5.70;;;17.80;99.90;;;;;;5033953;28;20160;-59
2021/08/21 03:17:55;;;;;;;6.43;5.00;;;17.70;99.90;;;;;;5033752;28;20444;-59
2021/08/21 03:20:20;;;;;;;7.10;5.70;;;17.70;99.90;;;;;;5033420;28;20399;-58
2021/08/21 03:22:46;;;;;;;5.93;5.43;;;17.70;99.90;;;;;;5032371;28;21006;-59
2021/08/21 03:25:12;;;;;;;5.97;5.47;;;17.80;99.90;;;;;;5019289;28;20257;-59
2021/08/21 03:27:38;;;;;;;5.70;5.20;;;17.70;99.90;;;;;;5027803;22;20505;-63
2021/08/21 03:30:05;;;;;;;9.23;5.47;;;17.70;99.90;;;;;;5013195;28;20227;-63
2021/08/21 03:32:31;;;;;;;5.40;5.00;;;17.70;99.90;;;;;;5012881;28;20180;-63
2021/08/21 03:34:56;;;;;;;6.53;5.93;;;17.70;99.90;;;;;;5013631;28;20918;-62
2021/08/21 03:37:22;;;;;;;6.67;6.07;;;17.70;99.90;;;;;;5023482;28;20205;-60
2021/08/21 03:39:48;;;;;;;6.30;5.70;;;17.70;99.90;;;;;;5033078;28;20182;-61
2021/08/21 03:42:15;;;;;;;5.70;5.20;;;17.70;99.90;;;;;;5033303;28;20170;-60
2021/08/21 03:44:41;;;;;;;5.83;5.33;;;17.60;99.90;;;;;;5017481;28;20183;-60
2021/08/21 03:47:07;;;;;;;5.80;5.30;;;17.70;99.90;;;;;;5013581;28;20798;-60
2021/08/21 03:49:32;;;;;;;6.43;5.83;;;17.70;99.90;;;;;;5028310;28;20182;-60
2021/08/21 03:51:58;;;;;;;7.23;6.40;;;17.80;99.90;;;;;;5032292;28;20163;-61
2021/08/21 03:54:23;;;;;;;7.20;6.50;;;17.70;99.90;;;;;;5015413;28;20253;-61
2021/08/21 03:56:49;;;;;;;6.50;5.57;;;17.60;99.90;;;;;;5033363;28;20209;-60
2021/08/21 03:59:14;;;;;;;6.00;5.53;;;17.60;99.90;;;;;;5033415;28;20220;-61
2021/08/21 04:01:40;;;;;;;6.40;5.80;;;17.60;99.90;;;;;;5033018;28;20584;-61
2021/08/21 04:04:06;;;;;;;6.90;6.20;;;17.60;99.90;;;;;;5032866;28;20569;-61
2021/08/21 04:06:31;;;;;;;6.30;5.70;;;17.60;99.90;;;;;;5032684;28;20581;-61
2021/08/21 04:08:57;;;;;;;5.83;5.33;;;17.60;99.90;;;;;;5033217;28;20657;-61
2021/08/21 04:11:22;;;;;;;5.63;4.73;;;17.60;99.90;;;;;;5033172;28;20178;-61
2021/08/21 04:13:48;;;;;;;5.60;5.10;;;17.60;99.90;;;;;;5032849;28;20199;-61
2021/08/21 04:16:14;;;;;;;5.47;4.97;;;17.60;99.90;;;;;;5032817;28;20166;-61
2021/08/21 04:18:39;;;;;;;6.37;5.70;;;17.60;99.90;;;;;;5032995;28;20172;-61
2021/08/21 04:21:05;;;;;;;6.50;5.83;;;17.60;99.90;;;;;;5032547;28;20274;-61
2021/08/21 04:23:31;;;;;;;6.20;5.60;;;17.60;99.90;;;;;;5032828;28;20197;-61
2021/08/21 04:25:59;;;;;;;5.67;5.10;;;17.60;99.90;;;;;;5033054;28;20171;-61
2021/08/21 04:28:30;;;;;;;5.47;4.90;;;17.50;99.90;;;;;;5032589;28;20214;-61
2021/08/21 04:30:56;;;;;;;6.63;6.07;;;17.50;99.90;;;;;;5032770;28;20966;-61
2021/08/21 04:33:22;;;;;;;6.30;5.70;;;17.50;99.90;;;;;;5032662;28;20453;-61
2021/08/21 04:35:48;;;;;;;6.60;6.03;;;17.50;99.90;;;;;;5031630;28;20422;-61
2021/08/21 04:38:14;;;;;;;5.13;4.73;;;17.50;99.90;;;;;;5032925;28;20195;-61
2021/08/21 04:40:40;;;;;;;5.83;5.33;;;17.50;99.90;;;;;;5031472;28;20509;-61
2021/08/21 04:43:05;;;;;;;6.67;6.07;;;17.50;99.90;;;;;;5032501;28;20684;-61
2021/08/21 04:45:31;;;;;;;8.40;6.17;;;17.50;99.90;;;;;;5032824;28;20171;-61
2021/08/21 04:47:56;;;;;;;8.10;6.00;;;17.50;99.90;;;;;;5032809;28;20191;-61
2021/08/21 04:50:22;;;;;;;7.00;5.70;;;17.50;99.90;;;;;;5032591;28;20179;-61
2021/08/21 04:52:48;;;;;;;6.30;5.70;;;17.60;99.90;;;;;;5031363;28;20609;-61
2021/08/21 04:55:14;;;;;;;6.50;5.80;;;17.60;99.90;;;;;;5032611;28;20485;-61
2021/08/21 04:57:39;;;;;;;5.43;4.93;;;17.70;99.90;;;;;;5031984;28;20185;-61
2021/08/21 05:00:06;;;;;;;5.93;5.40;;;17.80;99.90;;;;;;5032178;28;20243;-60
2021/08/21 05:02:32;;;;;;;5.87;5.27;;;17.90;99.90;;;;;;5036018;28;20175;-61
2021/08/21 05:04:58;;;;;;;5.67;5.17;;;17.90;99.90;;;;;;5036052;28;20460;-61
2021/08/21 05:07:23;;;;;;;6.03;5.10;;;18.00;99.90;;;;;;5035994;28;20183;-61
2021/08/21 05:09:49;;;;;;;5.70;5.20;;;18.10;99.90;;;;;;5036045;28;20189;-61
2021/08/21 05:12:14;;;;;;;5.43;4.47;;;18.10;99.90;;;;;;5035725;28;20224;-61
2021/08/21 05:14:40;;;;;;;6.33;5.77;;;18.10;99.90;;;;;;5035759;28;20563;-61
2021/08/21 05:17:05;;;;;;;6.90;5.97;;;18.10;99.90;;;;;;5035875;28;20190;-61
2021/08/21 05:19:38;;;;;;;5.20;4.80;;;18.20;99.90;;;;;;5035822;28;20678;-61
2021/08/21 05:24:49;;;;;;;5.30;4.80;;;18.40;99.90;;;;;;5036089;28;20478;-59
2021/08/21 05:27:16;;;;;;;5.30;4.90;;;18.40;99.90;;;;;;5035237;28;20433;-61
2021/08/21 05:29:42;;;;;;;6.40;5.00;;;18.50;99.90;;;;;;5035544;28;20845;-61
2021/08/21 05:32:08;;;;;;;5.40;4.37;;;18.60;99.90;;;;;;5035601;28;20402;-61
2021/08/21 05:34:33;;;;;;;4.73;4.33;;;18.70;99.90;;;;;;5035531;28;20187;-61
2021/08/21 05:36:59;;;;;;;4.60;4.20;;;18.80;99.90;;;;;;5035739;28;20430;-61
2021/08/21 05:39:25;;;;;;;6.33;4.70;;;18.90;99.90;;;;;;5035755;28;20190;-61
2021/08/21 05:41:51;;;;;;;4.23;3.93;;;19.10;99.90;;;;;;5035207;28;20206;-61
2021/08/21 05:44:16;;;;;;;6.00;5.10;;;19.10;99.90;;;;;;5035238;28;20797;-61
2021/08/21 05:46:42;;;;;;;4.97;4.57;;;19.20;99.90;;;;;;5018953;28;20564;-61
2021/08/21 05:49:07;;;;;;;5.07;4.57;;;19.20;99.90;;;;;;5031205;28;20607;-61
2021/08/21 05:51:33;;;;;;;5.13;4.70;;;19.20;99.90;;;;;;5034945;28;20167;-61
2021/08/21 05:53:59;;;;;;;5.10;4.60;;;19.30;99.90;;;;;;5034343;28;20569;-61
2021/08/21 05:56:24;;;;;;;5.57;5.10;;;19.40;99.90;;;;;;5017569;28;20202;-61
2021/08/21 05:58:50;;;;;;;5.40;4.90;;;19.50;99.90;;;;;;5035545;28;20182;-61
2021/08/21 06:01:16;;;;;;;5.43;5.00;;;19.50;99.90;;;;;;5035431;28;20167;-61
2021/08/21 06:03:41;;;;;;;5.63;5.13;;;19.60;99.90;;;;;;5035453;28;20542;-61
2021/08/21 06:06:11;;;;;;;5.07;4.57;;;19.70;99.90;;;;;;5035056;28;20636;-62
2021/08/21 06:08:40;;;;;;;6.10;5.60;;;19.70;99.90;;;;;;5035126;28;20258;-61
2021/08/21 06:11:06;;;;;;;5.93;5.30;;;19.80;99.90;;;;;;5035040;28;20406;-61
2021/08/21 06:13:32;;;;;;;6.80;6.20;;;19.90;99.90;;;;;;5034501;28;20446;-62
2021/08/21 06:15:58;;;;;;;6.57;5.97;;;19.90;99.90;;;;;;5034207;28;20514;-61
2021/08/21 06:18:24;;;;;;;6.07;5.47;;;20.00;99.90;;;;;;5033750;28;20496;-61
2021/08/21 06:20:50;;;;;;;5.97;5.47;;;20.10;99.90;;;;;;5034384;28;20426;-61
2021/08/21 06:23:15;;;;;;;9.03;7.17;;;20.10;99.90;;;;;;5034969;28;20203;-61
2021/08/21 06:25:41;;;;;;;6.23;5.73;;;20.10;99.90;;;;;;5034946;28;20521;-61
2021/08/21 06:28:06;;;;;;;6.50;6.00;;;20.20;99.90;;;;;;5034799;28;20260;-61
2021/08/21 06:30:32;;;;;;;5.63;5.13;;;20.20;99.90;;;;;;5034885;28;20171;-61
2021/08/21 06:32:58;;;;;;;8.03;6.00;;;20.20;99.90;;;;;;5033545;28;20571;-61
2021/08/21 06:35:24;;;;;;;7.43;6.73;;;20.20;99.90;;;;;;5034455;28;20402;-61
2021/08/21 06:37:49;;;;;;;7.33;6.07;;;20.20;99.90;;;;;;5034650;28;20363;-61
2021/08/21 06:40:16;;;;;;;7.27;6.53;;;20.20;99.90;;;;;;5034334;28;20167;-61
2021/08/21 06:42:41;;;;;;;6.33;5.77;;;20.20;99.90;;;;;;5034330;28;20170;-61
2021/08/21 06:45:09;;;;;;;7.70;6.50;;;20.40;99.90;;;;;;5034143;28;20398;-60
2021/08/21 06:47:35;;;;;;;7.13;6.47;;;20.50;99.90;;;;;;5033972;28;20223;-61
2021/08/21 06:50:02;;;;;;;6.33;5.83;;;20.60;99.90;;;;;;5033966;28;20492;-61
2021/08/21 06:52:28;;;;;;;6.10;5.50;;;20.70;99.90;;;;;;5033377;28;20262;-60
2021/08/21 06:54:53;;;;;;;7.53;6.40;;;20.80;99.90;;;;;;5033956;28;20582;-60
2021/08/21 06:57:19;;;;;;;6.80;6.20;;;20.80;99.90;;;;;;5034054;28;20251;-59
2021/08/21 06:59:44;;;;;;;6.57;5.97;;;20.80;99.90;;;;;;5034003;28;20159;-61
2021/08/21 07:02:10;;;;;;;6.60;6.00;;;20.80;99.90;;;;;;5033678;28;20229;-60
2021/08/21 07:04:36;;;;;;;6.07;5.47;;;20.90;99.90;;;;;;5034175;28;20167;-61
2021/08/21 07:07:02;;;;;;;6.77;6.17;;;20.90;99.90;;;;;;5033520;28;20641;-60
2021/08/21 07:09:28;;;;;;;6.10;5.50;;;21.00;99.90;;;;;;5034055;28;20175;-61
2021/08/21 07:11:54;;;;;;;7.37;6.77;;;21.00;99.90;;;;;;5034417;28;20414;-60
2021/08/21 07:14:19;;;;;;;7.40;6.70;;;21.10;99.90;;;;;;5034837;28;20207;-61
2021/08/21 07:16:45;;;;;;;8.30;7.07;;;21.10;99.90;;;;;;5034081;28;20422;-61
2021/08/21 07:19:10;;;;;;;7.90;6.97;;;20.90;99.90;;;;;;5032839;28;20560;-61
2021/08/21 07:21:36;;;;;;;6.90;6.20;;;20.90;99.90;;;;;;5033683;28;20168;-61
2021/08/21 07:24:02;;;;;;;8.70;6.90;;;20.60;99.90;;;;;;5033106;28;20246;-61
2021/08/21 07:26:29;;;;;;;7.90;7.20;;;20.80;99.90;;;;;;5033508;28;20187;-61
2021/08/21 07:28:54;;;;;;;7.93;7.10;;;20.80;99.90;;;;;;5032681;28;20686;-61
2021/08/21 07:31:20;;;;;;;7.57;6.80;;;20.80;99.90;;;;;;5033229;28;20527;-61
2021/08/21 07:33:45;;;;;;;7.20;6.60;;;20.80;99.90;;;;;;5032695;28;20647;-61
2021/08/21 07:36:11;;;;;;;6.90;6.20;;;20.90;99.90;;;;;;5033519;28;20243;-60
2021/08/21 07:38:36;;;;;;;7.77;7.07;;;21.10;99.90;;;;;;5031820;28;20191;-61
2021/08/21 07:41:02;;;;;;;7.53;6.83;;;21.10;99.90;;;;;;5014963;28;20259;-61
2021/08/21 07:43:28;;;;;;;7.93;7.10;;;21.10;99.90;;;;;;5013495;28;20171;-61
2021/08/21 07:45:54;;;;;;;10.70;7.30;;;21.40;99.90;;;;;;4995773;28;20223;-61
2021/08/21 07:48:20;;;;;;;7.40;6.70;;;21.40;99.90;;;;;;5013199;28;20231;-61
2021/08/21 07:50:46;;;;;;;7.97;6.80;;;21.50;99.90;;;;;;5013435;28;20885;-60
2021/08/21 07:53:12;;;;;;;7.20;6.60;;;21.50;99.90;;;;;;5013356;28;20233;-61
2021/08/21 07:55:38;;;;;;;8.20;6.40;;;21.60;99.90;;;;;;5013437;28;20164;-61
2021/08/21 07:58:04;;;;;;;6.97;6.27;;;21.60;99.90;;;;;;5019766;28;20529;-61
2021/08/21 08:00:31;;;;;;;6.73;6.03;;;21.80;99.90;;;;;;5033293;28;20257;-61
2021/08/21 08:02:56;;;;;;;6.50;5.90;;;21.80;99.90;;;;;;5032633;28;20405;-61
2021/08/21 08:05:22;;;;;;;6.63;6.03;;;21.90;99.90;;;;;;5015463;28;20767;-61
2021/08/21 08:07:47;;;;;;;8.83;6.20;;;21.90;99.90;;;;;;5033386;28;20561;-61
2021/08/21 08:10:13;;;;;;;7.30;6.60;;;22.00;99.90;;;;;;5033212;28;20169;-61
2021/08/21 08:12:39;;;;;;;7.03;6.00;;;22.10;99.90;;;;;;5032904;28;20163;-61
2021/08/21 08:15:05;;;;;;;5.90;5.40;;;22.10;99.90;;;;;;5033181;28;20655;-61
2021/08/21 08:17:31;;;;;;;6.97;6.00;;;22.20;99.90;;;;;;5032543;28;20187;-61
2021/08/21 08:19:56;;;;;;;6.23;5.63;;;22.20;99.90;;;;;;5032959;28;20402;-61
2021/08/21 08:22:23;;;;;;;6.60;6.00;;;22.20;99.90;;;;;;5033063;28;20624;-61
2021/08/21 08:24:49;;;;;;;6.80;6.20;;;22.30;99.90;;;;;;5033033;28;20209;-61
2021/08/21 08:27:15;;;;;;;6.60;5.73;;;22.50;99.90;;;;;;5032754;28;20913;-61
2021/08/21 08:29:41;;;;;;;6.93;6.23;;;22.50;99.90;;;;;;5032976;28;20575;-60
2021/08/21 08:32:07;;;;;;;6.17;5.57;;;22.60;99.90;;;;;;5032382;28;20460;-61
2021/08/21 08:34:33;;;;;;;5.57;5.07;;;22.60;99.90;;;;;;5032371;28;20445;-61
2021/08/21 08:36:58;;;;;;;6.67;5.40;;;22.90;99.90;;;;;;5036314;28;20230;-61
2021/08/21 08:39:24;;;;;;;5.37;4.87;;;22.90;99.90;;;;;;5036891;28;20177;-61
2021/08/21 08:41:51;;;;;;;7.20;5.80;;;23.30;99.90;;;;;;5036563;28;20750;-61
2021/08/21 08:44:21;;;;;;;5.20;4.70;;;23.40;99.90;;;;;;5036682;28;20183;-61
2021/08/21 08:46:47;;;;;;;6.07;5.47;;;23.50;99.90;;;;;;5036268;28;20456;-61
2021/08/21 08:49:13;;;;;;;6.27;5.67;;;23.70;99.90;;;;;;5036191;28;20930;-61
2021/08/21 08:51:39;;;;;;;5.20;4.80;;;23.60;99.90;;;;;;5035144;28;20226;-61
2021/08/21 08:54:04;;;;;;;6.93;5.00;;;23.70;99.90;;;;;;5036215;28;20316;-61
2021/08/21 08:56:30;;;;;;;6.43;5.80;;;23.80;99.90;;;;;;5036493;28;20199;-61
2021/08/21 08:58:56;;;;;;;5.30;4.80;;;23.70;99.90;;;;;;5018541;28;20545;-61
2021/08/21 09:01:21;;;;;;;6.30;5.70;;;24.00;99.90;;;;;;5036394;28;20636;-61
2021/08/21 09:03:47;;;;;;;6.43;5.83;;;24.10;99.90;;;;;;5035660;28;20175;-61
2021/08/21 09:06:14;;;;;;;5.83;5.27;;;24.50;99.90;;;;;;5036057;28;20175;-61
2021/08/21 09:08:40;;;;;;;6.77;6.17;;;24.40;99.90;;;;;;5036018;28;20417;-61
2021/08/21 09:11:21;;;;;;;9.83;6.13;;;24.20;99.90;;;;;;5034441;28;20848;-62
2021/08/21 09:13:47;;;;;;;5.63;5.13;;;24.20;99.90;;;;;;5036123;28;20461;-61
2021/08/21 09:16:25;;;;;;;6.40;5.80;;;24.30;99.90;;;;;;5036089;28;20398;-61
2021/08/21 09:19:09;;;;;;;6.50;5.90;;;24.40;99.90;;;;;;5036150;28;20444;-61
2021/08/21 09:21:34;;;;;;;6.20;5.70;;;24.50;99.90;;;;;;5034517;28;20401;-61
2021/08/21 09:24:00;;;;;;;7.53;6.00;;;24.50;99.90;;;;;;5035887;28;20413;-61
2021/08/21 09:26:31;;;;;;;5.70;5.07;;;24.60;99.90;;;;;;5035700;28;20230;-61
2021/08/21 09:28:59;;;;;;;5.90;4.87;;;24.50;99.90;;;;;;5041371;22;20223;-60
2021/08/21 09:31:30;;;;;;;7.30;4.93;;;24.80;99.90;;;;;;5016188;28;20446;-60
2021/08/21 09:34:07;;;;;;;5.00;4.57;;;24.80;99.90;;;;;;5016175;28;20803;-60
2021/08/21 09:36:39;;;;;;;6.90;6.20;;;25.10;99.90;;;;;;5016073;28;20375;-60
2021/08/21 09:39:15;;;;;;;6.63;5.97;;;25.40;99.90;;;;;;5014988;28;20802;-60
2021/08/21 09:41:54;;;;;;;8.10;6.20;;;25.40;99.90;;;;;;5015598;28;20389;-60
2021/08/21 09:44:27;;;;;;;5.23;4.73;;;25.50;99.90;;;;;;5015270;28;20919;-60
2021/08/21 09:47:23;;;;;;;5.90;5.20;;;25.60;99.90;;;;;;5014672;28;20935;-60
2021/08/21 09:49:49;;;;;;;6.80;4.97;;;25.90;99.90;;;;;;5014865;28;20425;-60
2021/08/21 09:52:16;;;;;;;6.63;5.50;;;26.00;99.90;;;;;;5016104;28;20435;-60
2021/08/21 09:54:44;;;;;;;5.13;4.63;;;26.20;99.90;;;;;;5015786;28;20438;-60
2021/08/21 09:57:20;;;;;;;5.70;5.20;;;26.40;99.90;;;;;;5015423;28;20493;-60
2021/08/21 09:59:56;;;;;;;6.00;5.30;;;26.30;99.90;;;;;;5015681;28;20479;-60
2021/08/21 10:02:22;;;;;;;6.83;5.90;;;26.20;99.90;;;;;;5015529;28;20394;-60
2021/08/21 10:04:48;;;;;;;5.47;4.90;;;26.10;99.90;;;;;;5015000;28;20506;-60
2021/08/21 10:07:17;;;;;;;5.37;4.87;;;26.30;99.90;;;;;;5015253;28;20438;-60
2021/08/21 10:09:43;;;;;;;6.17;5.57;;;26.60;99.90;;;;;;5014596;28;20164;-58
2021/08/21 10:12:11;;;;;;;6.57;5.97;;;26.30;99.90;;;;;;5011556;28;20800;-60
2021/08/21 10:14:39;;;;;;;7.13;5.30;;;26.40;99.90;;;;;;5015601;28;20215;-60
2021/08/21 10:17:08;;;;;;;5.83;5.27;;;26.30;99.90;;;;;;5015093;28;20497;-59
2021/08/21 10:19:34;;;;;;;6.13;5.63;;;26.40;99.90;;;;;;5014746;28;20757;-60
2021/08/21 10:22:02;;;;;;;6.50;5.70;;;26.60;99.90;;;;;;5015261;28;20470;-59
2021/08/21 10:24:34;;;;;;;6.40;5.80;;;26.70;99.90;;;;;;5014950;28;20486;-60
2021/08/21 10:27:34;;;;;;;5.93;5.37;;;26.50;99.90;;;;;;5014687;28;20892;-54
2021/08/21 10:30:05;;;;;;;7.80;6.37;;;26.70;99.90;;;;;;5001014;28;20557;-60
2021/08/21 10:32:33;;;;;;;6.43;4.90;;;26.70;99.90;;;;;;5014891;28;20498;-60
2021/08/21 10:35:00;;;;;;;9.20;7.13;;;27.10;99.90;;;;;;5015182;28;20435;-59
2021/08/21 10:37:46;;;;;;;7.30;5.87;;;27.00;99.90;;;;;;5014644;28;20427;-60
2021/08/21 10:40:26;;;;;;;6.50;5.50;;;26.90;99.90;;;;;;5014822;28;20391;-57
2021/08/21 10:42:53;;;;;;;5.93;5.50;;;27.20;99.90;;;;;;4995084;28;20438;-59
2021/08/21 10:45:43;;;;;;;6.10;5.60;;;27.10;99.90;;;;;;4995223;28;20407;-60
2021/08/21 10:48:36;;;;;;;6.10;5.50;;;27.40;99.90;;;;;;4994766;28;20420;-60
2021/08/21 10:51:05;;;;;;;6.07;5.53;;;27.50;99.90;;;;;;4987686;28;20412;-60
2021/08/21 10:53:41;;;;;;;6.33;5.73;;;27.60;99.90;;;;;;5014514;28;20450;-60
2021/08/21 10:56:06;;;;;;;6.87;6.17;;;27.90;99.90;;;;;;5014672;28;20875;-60
2021/08/21 10:58:52;;;;;;;5.20;4.80;;;28.40;99.90;;;;;;5013762;28;20560;-60
2021/08/21 11:01:22;;;;;;;6.13;5.53;;;29.30;99.90;;;;;;5014580;28;20187;-60
2021/08/21 11:03:49;;;;;;;6.67;5.90;;;30.90;97.90;;;;;;5014152;28;20407;-60
2021/08/21 11:06:15;;;;;;;7.13;6.43;;;31.60;95.20;;;;;;5014593;28;20403;-61
2021/08/21 11:08:41;;;;;;;6.50;6.00;;;32.30;93.90;;;;;;5012903;28;20466;-60
2021/08/21 11:11:30;;;;;;;6.63;6.10;;;32.40;94.30;;;;;;5014151;28;20437;-61
2021/08/21 11:14:06;;;;;;;6.50;5.93;;;32.70;92.20;;;;;;5014320;28;20588;-60
2021/08/21 11:16:46;;;;;;;5.93;5.07;;;33.40;90.70;;;;;;5014101;28;20380;-60
2021/08/21 11:19:32;;;;;;;5.63;5.17;;;34.60;86.90;;;;;;5014142;28;20469;-60
2021/08/21 11:22:14;;;;;;;6.23;5.73;;;34.80;83.20;;;;;;5013250;28;20510;-60
2021/08/21 11:25:03;;;;;;;6.43;5.83;;;34.40;82.80;;;;;;5013121;28;20430;-61
2021/08/21 11:27:32;;;;;;;5.13;4.70;;;35.30;82.00;;;;;;5013966;28;20451;-61
2021/08/21 11:30:12;;;;;;;5.90;5.40;;;36.40;79.50;;;;;;5014228;28;20404;-56
2021/08/21 11:32:42;;;;;;;6.47;5.83;;;36.50;76.50;;;;;;5013801;28;20372;-61
2021/08/21 11:35:14;;;;;;;7.23;5.70;;;36.00;76.00;;;;;;5014076;28;20496;-61
2021/08/21 11:37:48;;;;;;;5.87;5.30;;;35.70;74.50;;;;;;5013651;28;20423;-61
2021/08/21 11:40:16;;;;;;;5.40;5.00;;;35.10;79.50;;;;;;5013140;28;20430;-61
2021/08/21 11:42:55;;;;;;;5.70;5.20;;;35.60;76.20;;;;;;5013805;28;20399;-61
2021/08/21 11:45:21;;;;;;;5.97;5.10;;;36.50;74.00;;;;;;5013658;28;20418;-60
2021/08/21 11:47:51;;;;;;;5.77;5.20;;;38.10;70.90;;;;;;5014330;28;20430;-61
2021/08/21 11:50:41;;;;;;;6.30;5.67;;;38.50;68.30;;;;;;5013757;28;20400;-61
2021/08/21 11:53:37;;;;;;;6.00;5.53;;;37.80;68.80;;;;;;5012606;28;20465;-61
2021/08/21 11:56:02;;;;;;;6.10;5.60;;;37.90;70.10;;;;;;5012554;28;20558;-59
2021/08/21 11:58:32;;;;;;;4.67;4.27;;;37.10;67.90;;;;;;5013622;28;20514;-60
2021/08/21 12:01:04;;;;;;;5.83;5.07;;;37.50;68.50;;;;;;5013852;28;20239;-60
2021/08/21 12:06:26;;;;;;;5.37;4.87;;;36.10;69.40;;;;;;4976533;28;20419;-61
2021/08/21 12:09:05;;;;;;;5.30;4.80;;;37.60;66.50;;;;;;5012901;28;20417;-61
2021/08/21 12:11:30;;;;;;;4.97;4.57;;;37.20;67.00;;;;;;5017131;28;20406;-61
2021/08/21 12:13:59;;;;;;;5.70;5.30;;;37.90;65.70;;;;;;5017467;28;20948;-61
2021/08/21 12:16:29;;;;;;;4.80;4.30;;;38.10;65.60;;;;;;5017011;28;20171;-61
2021/08/21 12:18:56;;;;;;;5.23;4.83;;;37.60;61.90;;;;;;5017350;28;20471;-60
2021/08/21 12:21:23;;;;;;;5.73;5.23;;;35.80;66.80;;;;;;5017350;28;20418;-60
2021/08/21 12:23:54;;;;;;;5.97;5.30;;;35.10;68.40;;;;;;5016950;28;20418;-59
2021/08/21 12:26:36;;;;;;;5.63;5.23;;;35.10;67.70;;;;;;5017739;28;20793;-60
2021/08/21 12:29:04;;;;;;;6.03;4.40;;;35.30;68.30;;;;;;5017367;28;20497;-60
2021/08/21 12:31:38;;;;;;;4.13;3.80;;;36.10;66.80;;;;;;5016859;28;20407;-60
2021/08/21 12:34:05;;;;;;;3.67;3.37;;;36.50;62.80;;;;;;5016111;28;20953;-60
2021/08/21 12:36:38;;;;;;;5.50;4.30;;;37.40;62.20;;;;;;5015703;28;20457;-56
2021/08/21 12:39:05;;;;;;;4.43;4.10;;;36.50;61.00;;;;;;5015815;28;20446;-60
2021/08/21 12:41:45;;;;;;;5.90;5.30;;;36.80;60.50;;;;;;5016952;28;20413;-60
2021/08/21 12:44:16;;;;;;;4.67;4.27;;;36.80;63.40;;;;;;5016082;28;20423;-60
2021/08/21 12:46:57;;;;;;;4.20;3.80;;;36.60;60.90;;;;;;5016769;28;20394;-59
2021/08/21 12:49:35;;;;;;;4.60;4.20;;;35.90;63.40;;;;;;5017133;28;20387;-60
2021/08/21 12:52:03;;;;;;;5.43;5.03;;;36.00;63.90;;;;;;5015584;28;20422;-59
2021/08/21 12:54:40;;;;;;;4.60;4.20;;;36.30;62.80;;;;;;5016709;28;21054;-60
2021/08/21 12:57:09;;;;;;;4.80;4.40;;;35.40;64.60;;;;;;4997907;28;20426;-59
2021/08/21 12:59:35;;;;;;;4.70;4.40;;;34.40;67.80;;;;;;5015550;28;20510;-56